首页
METAR-TAF:

METAR-TAF

机场 :

诺曼·曼利国际机场

京斯敦, 牙买加

纬度: 17-56N, 经度: 076-47W, 海拔: 3米

当前天气观测

该预报发布于37分钟前的17:00 UTC
风速25节,风向东转东南
温度 35°C
湿度 50%
气压 1015 hPa
能见度10公里或以上
少量云层高于2200英尺

METAR: MKJP 081700Z 11025KT 9999 FEW022 35/23 Q1015

时间: 12:37 (17:37 UTC)

预报

该预报发布于6小时和22分钟前的11:15 UTC
预报有效从08日的 12点(UTC)到 09日的 12点(UTC)
风速8节,风向
能见度10公里或以上
少量云层高于2200英尺
成为
从 08日的 13点(UTC)到 08日的 15点(UTC)
风速25节,风向南转南东
几率 40% :
短暂存在
从 08日的 18点(UTC)到 08日的 24点(UTC)
散云层高于2000英尺
少量云层高于2200英尺, 积雨云.
成为
从 09日的 04点(UTC)到 09日的 06点(UTC)
风速8节,风向

TAF: MKJP 081115Z 0812/0912 36008KT 9999 FEW022 BECMG 0813/0815 15025KT PROB40 TEMPO 0818/0824 SCT020 FEW022CB BECMG 0904/0906 36008KT

超过4000个机场的气象观测和天气预报(METAR&TAF报告)。

可查询的气象台以黄色和红色小点在地图上表示。

将鼠标移到小点上方,可查看气象台名称。

然后点击查看天气观测和预报。

如需切换地图:点击带黑十字的绿色按钮放大地图;点击带横线的绿色按钮缩小地图;或者点击绿色箭头查看邻近地区的地图。


METAR-TAF: